createdAt,value
2019-02-24T00:01:49.336Z,58.03
2019-02-24T00:04:18.877Z,57.82
2019-02-24T00:06:50.502Z,58.88
2019-02-24T00:09:19.826Z,58.87
2019-02-24T00:11:49.580Z,59.29
2019-02-24T00:14:19.120Z,58.22
2019-02-24T00:16:48.625Z,58.82
2019-02-24T00:19:18.293Z,59.28
2019-02-24T00:21:47.977Z,59.03
2019-02-24T00:24:17.566Z,58.70
2019-02-24T00:26:47.140Z,58.88
2019-02-24T00:29:16.750Z,58.05
2019-02-24T00:31:46.373Z,57.63
2019-02-24T00:34:15.945Z,57.73
2019-02-24T00:36:45.619Z,58.36
2019-02-24T00:39:15.401Z,57.68
2019-02-24T00:41:45.187Z,57.51
2019-02-24T00:44:14.959Z,57.75
2019-02-24T00:46:44.603Z,57.33
2019-02-24T00:49:14.420Z,57.41
2019-02-24T00:51:44.055Z,57.42
2019-02-24T00:54:13.717Z,56.64
2019-02-24T00:56:43.435Z,57.73
2019-02-24T00:59:13.058Z,58.34
2019-02-24T01:01:42.595Z,58.92
2019-02-24T01:04:12.074Z,58.66
2019-02-24T01:06:43.095Z,58.39
2019-02-24T01:09:12.879Z,58.51
2019-02-24T01:11:42.675Z,58.70
2019-02-24T01:14:12.245Z,59.33
2019-02-24T01:16:42.126Z,59.25
2019-02-24T01:19:11.751Z,59.71
2019-02-24T01:21:41.395Z,59.54
2019-02-24T01:24:11.145Z,59.42
2019-02-24T01:26:40.766Z,59.75
2019-02-24T01:29:12.475Z,60.16
2019-02-24T01:31:42.238Z,59.83
2019-02-24T01:34:11.912Z,59.61
2019-02-24T01:36:43.788Z,58.31
2019-02-24T01:39:13.439Z,58.67
2019-02-24T01:41:43.078Z,58.32
2019-02-24T01:44:12.651Z,58.30
2019-02-24T01:46:42.333Z,57.93
2019-02-24T01:49:12.004Z,57.86
2019-02-24T01:51:41.644Z,57.76
2019-02-24T01:54:11.288Z,57.27
2019-02-24T01:56:42.069Z,58.26
2019-02-24T01:59:11.728Z,58.90
2019-02-24T02:01:41.271Z,58.05
2019-02-24T02:04:10.767Z,58.83
2019-02-24T02:06:40.493Z,57.71
2019-02-24T02:09:10.134Z,58.14
2019-02-24T02:11:39.645Z,58.50
2019-02-24T02:14:09.287Z,57.48
2019-02-24T02:16:38.948Z,57.67
2019-02-24T02:19:08.627Z,58.24
2019-02-24T02:21:38.207Z,58.54
2019-02-24T02:24:07.925Z,58.43
2019-02-24T02:26:37.624Z,57.36
2019-02-24T02:29:08.445Z,57.12
2019-02-24T02:31:38.240Z,57.00
2019-02-24T02:34:08.031Z,57.28
2019-02-24T02:36:37.538Z,58.25
2019-02-24T02:39:07.718Z,58.69
2019-02-24T02:41:38.964Z,58.97
2019-02-24T02:44:08.810Z,59.55
2019-02-24T02:46:38.481Z,58.97
2019-02-24T02:49:08.187Z,59.34
2019-02-24T02:51:37.680Z,59.60
2019-02-24T02:54:07.356Z,59.00
2019-02-24T02:56:36.940Z,58.59
2019-02-24T02:59:06.627Z,58.33
2019-02-24T03:01:36.413Z,57.81
2019-02-24T03:04:06.140Z,58.17
2019-02-24T03:06:43.887Z,58.53
2019-02-24T03:09:13.462Z,58.04
2019-02-24T03:11:43.306Z,58.49
2019-02-24T03:14:12.923Z,57.26
2019-02-24T03:16:42.712Z,58.06
2019-02-24T03:19:12.343Z,58.27
2019-02-24T03:21:42.033Z,56.75
2019-02-24T03:24:11.701Z,57.38
2019-02-24T03:26:41.290Z,56.88
2019-02-24T03:29:10.807Z,57.37
2019-02-24T03:31:41.510Z,57.60
2019-02-24T03:34:11.247Z,58.85
2019-02-24T03:36:40.906Z,58.44
2019-02-24T03:39:10.525Z,57.94
2019-02-24T03:41:40.150Z,57.91
2019-02-24T03:44:09.761Z,58.37
2019-02-24T03:46:39.404Z,57.81
2019-02-24T03:49:08.987Z,57.76
2019-02-24T03:51:38.611Z,59.07
2019-02-24T03:54:09.292Z,58.22
2019-02-24T03:56:38.937Z,58.66
2019-02-24T03:59:15.172Z,58.11
2019-02-24T04:01:40.121Z,59.29
2019-02-24T04:04:09.858Z,58.39
2019-02-24T04:06:41.576Z,57.97
2019-02-24T04:09:18.424Z,58.13
2019-02-24T04:11:48.059Z,58.14
2019-02-24T04:14:17.761Z,58.49
2019-02-24T04:16:47.414Z,59.34
2019-02-24T04:19:18.785Z,59.57
2019-02-24T04:21:51.359Z,58.90
2019-02-24T04:24:21.037Z,58.91
2019-02-24T04:26:50.806Z,59.23
2019-02-24T04:29:24.703Z,60.20
2019-02-24T04:31:51.853Z,60.15
2019-02-24T04:34:21.513Z,60.23
2019-02-24T04:36:51.138Z,60.44
2019-02-24T04:39:20.730Z,60.47
2019-02-24T04:41:50.280Z,60.33
2019-02-24T04:44:21.248Z,60.04
2019-02-24T04:46:50.958Z,60.42
2019-02-24T04:49:20.616Z,59.41
2019-02-24T04:51:50.119Z,59.47
2019-02-24T04:54:19.698Z,58.86
2019-02-24T04:56:49.331Z,58.23
2019-02-24T04:59:18.996Z,58.75
2019-02-24T05:01:49.691Z,59.23
2019-02-24T05:04:19.389Z,59.33
2019-02-24T05:06:49.048Z,58.98
2019-02-24T05:09:18.750Z,59.82
2019-02-24T05:11:48.458Z,59.44
2019-02-24T05:14:18.064Z,58.59
2019-02-24T05:16:47.701Z,59.52
2019-02-24T05:19:17.175Z,59.32
2019-02-24T05:21:48.177Z,59.48
2019-02-24T05:24:17.762Z,58.69
2019-02-24T05:26:47.363Z,58.79
2019-02-24T05:29:16.999Z,59.54
2019-02-24T05:31:46.635Z,58.10
2019-02-24T05:34:16.263Z,58.29
2019-02-24T05:36:46.026Z,58.13
2019-02-24T05:39:15.639Z,58.40
2019-02-24T05:41:45.248Z,58.48
2019-02-24T05:44:16.299Z,57.83
2019-02-24T05:46:45.914Z,58.20
2019-02-24T05:49:16.827Z,57.96
2019-02-24T05:51:46.382Z,58.31
2019-02-24T05:54:16.151Z,57.05
2019-02-24T05:56:45.695Z,56.77
2019-02-24T05:59:15.368Z,56.74
2019-02-24T06:01:47.398Z,55.44
2019-02-24T06:04:17.121Z,54.88
2019-02-24T06:06:46.813Z,55.84
2019-02-24T06:09:16.423Z,54.76
2019-02-24T06:11:46.183Z,54.01
2019-02-24T06:14:15.771Z,54.20
2019-02-24T06:16:47.697Z,54.06
2019-02-24T06:19:17.419Z,54.91
2019-02-24T06:21:47.102Z,55.56
2019-02-24T06:24:17.860Z,55.92
2019-02-24T06:26:47.534Z,54.63
2019-02-24T06:29:17.124Z,53.78
2019-02-24T06:31:46.666Z,49.82
2019-02-24T06:34:17.434Z,47.78
2019-02-24T06:36:47.113Z,45.52
2019-02-24T06:39:16.770Z,41.35
2019-02-24T06:41:46.329Z,38.19
2019-02-24T06:44:15.869Z,34.70
2019-02-24T06:46:47.229Z,32.00
2019-02-24T06:49:16.908Z,28.83
2019-02-24T06:51:46.575Z,26.62
2019-02-24T06:54:17.664Z,25.50
2019-02-24T06:56:47.318Z,24.21
2019-02-24T06:59:16.954Z,22.71
2019-02-24T07:01:46.612Z,20.46
2019-02-24T07:04:18.697Z,20.44
2019-02-24T07:06:48.269Z,19.84
2019-02-24T07:09:19.141Z,18.12
2019-02-24T07:11:48.943Z,18.65
2019-02-24T07:14:18.780Z,17.11
2019-02-24T07:16:48.519Z,15.95
2019-02-24T07:19:18.284Z,16.34
2019-02-24T07:21:47.932Z,16.93
2019-02-24T07:24:17.648Z,15.46
2019-02-24T07:26:47.354Z,15.07
2019-02-24T07:29:18.137Z,14.95
2019-02-24T07:31:47.719Z,14.08
2019-02-24T07:34:17.485Z,13.23
2019-02-24T07:36:48.406Z,13.20
2019-02-24T07:39:20.143Z,13.00
2019-02-24T07:41:51.043Z,14.00
2019-02-24T07:44:20.748Z,14.53
2019-02-24T07:46:50.403Z,13.34
2019-02-24T07:49:22.389Z,12.73
2019-02-24T07:51:52.152Z,13.04
2019-02-24T07:54:21.894Z,13.14
2019-02-24T07:56:54.689Z,11.90
2019-02-24T07:59:24.336Z,11.88
2019-02-24T08:01:54.963Z,11.51
2019-02-24T08:04:24.587Z,11.66
2019-02-24T08:06:54.402Z,11.60
2019-02-24T08:09:24.068Z,11.29
2019-02-24T08:11:54.958Z,10.69
2019-02-24T08:14:24.563Z,11.29
2019-02-24T08:16:57.401Z,11.07
2019-02-24T08:19:27.049Z,10.84
2019-02-24T08:21:56.639Z,10.30
2019-02-24T08:24:29.121Z,10.05
2019-02-24T08:26:57.701Z,9.78
2019-02-24T08:29:29.014Z,8.60
2019-02-24T08:31:58.633Z,9.95
2019-02-24T08:34:28.209Z,10.79
2019-02-24T08:36:57.978Z,11.44
2019-02-24T08:39:27.465Z,11.01
2019-02-24T08:41:57.104Z,10.24
2019-02-24T08:44:26.844Z,10.51
2019-02-24T08:47:00.049Z,10.76
2019-02-24T08:49:31.226Z,10.27
2019-02-24T08:52:02.925Z,10.38
2019-02-24T08:54:37.368Z,11.59
2019-02-24T08:57:09.862Z,11.27
2019-02-24T08:59:39.493Z,10.69
2019-02-24T09:02:10.669Z,10.37
2019-02-24T09:04:41.239Z,10.48
2019-02-24T09:07:10.784Z,10.32
2019-02-24T09:09:40.345Z,10.97
2019-02-24T09:12:10.267Z,11.71
2019-02-24T09:14:44.572Z,11.52
2019-02-24T09:17:15.568Z,10.81
2019-02-24T09:19:47.328Z,10.95
2019-02-24T09:22:21.480Z,11.87
2019-02-24T09:24:52.575Z,10.16
2019-02-24T09:27:23.618Z,10.65
2019-02-24T09:30:02.279Z,9.88
2019-02-24T09:32:36.135Z,9.86
2019-02-24T09:35:03.360Z,9.67
2019-02-24T09:37:33.101Z,11.17
2019-02-24T09:40:04.933Z,10.17
2019-02-24T09:42:34.724Z,10.79
2019-02-24T09:45:07.854Z,10.08
2019-02-24T09:47:46.425Z,9.87
2019-02-24T09:50:11.984Z,9.91
2019-02-24T09:52:42.623Z,10.08
2019-02-24T09:55:12.327Z,10.49
2019-02-24T09:57:44.213Z,11.62
2019-02-24T10:00:13.886Z,10.21
2019-02-24T10:02:44.788Z,11.34
2019-02-24T10:05:16.154Z,12.73
2019-02-24T10:07:45.790Z,14.55
2019-02-24T10:10:15.357Z,13.51
2019-02-24T10:12:50.752Z,14.39
2019-02-24T10:15:20.727Z,12.47
2019-02-24T10:17:50.377Z,13.38
2019-02-24T10:20:19.838Z,10.69
2019-02-24T10:22:51.305Z,11.70
2019-02-24T10:25:22.634Z,10.36
2019-02-24T10:27:52.479Z,9.29
2019-02-24T10:30:22.125Z,9.44
2019-02-24T10:32:55.150Z,8.97
2019-02-24T10:35:24.614Z,8.82
2019-02-24T10:37:54.629Z,8.94
2019-02-24T10:40:26.133Z,8.33
2019-02-24T10:42:56.693Z,10.22
2019-02-24T10:45:27.509Z,9.19
2019-02-24T10:47:59.429Z,9.19
2019-02-24T10:50:29.094Z,8.93
2019-02-24T10:53:00.935Z,9.20
2019-02-24T10:55:32.323Z,9.69
2019-02-24T10:58:06.988Z,10.59
2019-02-24T11:00:41.026Z,10.56
2019-02-24T11:03:13.997Z,11.98
2019-02-24T11:05:47.839Z,11.21
2019-02-24T11:08:21.498Z,11.17
2019-02-24T11:10:51.118Z,11.93
2019-02-24T11:13:24.807Z,10.56
2019-02-24T11:15:54.404Z,11.54
2019-02-24T11:18:24.035Z,9.49
2019-02-24T11:20:56.407Z,10.23
2019-02-24T11:23:26.098Z,10.15
2019-02-24T11:25:55.712Z,9.72
2019-02-24T11:28:27.087Z,9.45
2019-02-24T11:30:58.965Z,10.21
2019-02-24T11:33:28.578Z,9.71
2019-02-24T11:35:58.313Z,11.45
2019-02-24T11:38:27.900Z,11.78
2019-02-24T11:40:57.807Z,12.07
2019-02-24T11:43:27.506Z,13.27
2019-02-24T11:45:57.017Z,13.37
2019-02-24T11:48:26.646Z,13.04
2019-02-24T11:50:56.268Z,13.45
2019-02-24T11:53:25.681Z,14.06
2019-02-24T11:55:55.276Z,16.10
2019-02-24T11:58:24.988Z,16.10
2019-02-24T12:00:56.575Z,17.97
2019-02-24T12:03:26.229Z,17.88
2019-02-24T12:05:58.407Z,18.96
2019-02-24T12:08:29.433Z,20.19
2019-02-24T12:11:00.761Z,21.74
2019-02-24T12:13:38.011Z,22.97
2019-02-24T12:16:07.770Z,24.73
2019-02-24T12:18:37.294Z,22.62
2019-02-24T12:21:06.893Z,22.76
2019-02-24T12:23:36.537Z,24.03
2019-02-24T12:26:06.743Z,24.66
2019-02-24T12:28:36.459Z,24.66
2019-02-24T12:31:06.272Z,26.33
2019-02-24T12:33:36.062Z,26.50
2019-02-24T12:36:05.740Z,26.83
2019-02-24T12:38:37.442Z,27.51
2019-02-24T12:41:07.093Z,27.54
2019-02-24T12:43:36.650Z,28.15
2019-02-24T12:46:06.390Z,26.99
2019-02-24T12:48:36.265Z,27.14
2019-02-24T12:51:06.019Z,27.59
2019-02-24T12:53:35.719Z,27.56
2019-02-24T12:56:05.553Z,30.12
2019-02-24T12:58:35.366Z,28.73
2019-02-24T13:01:05.148Z,28.37
2019-02-24T13:03:35.044Z,29.74
2019-02-24T13:06:04.627Z,29.58
2019-02-24T13:08:34.076Z,31.01
2019-02-24T13:11:05.673Z,29.93
2019-02-24T13:13:35.075Z,31.15
2019-02-24T13:16:04.710Z,33.45
2019-02-24T13:18:34.176Z,32.87
2019-02-24T13:21:05.054Z,31.49
2019-02-24T13:23:35.296Z,32.32
2019-02-24T13:26:05.029Z,33.03
2019-02-24T13:28:35.140Z,32.86
2019-02-24T13:31:04.770Z,33.37
2019-02-24T13:33:34.527Z,33.10
2019-02-24T13:36:05.723Z,32.82
2019-02-24T13:38:35.519Z,33.94
2019-02-24T13:41:05.145Z,35.90
2019-02-24T13:43:34.704Z,35.90
2019-02-24T13:46:06.636Z,36.01
2019-02-24T13:48:37.012Z,36.01
2019-02-24T13:51:06.596Z,36.65
2019-02-24T13:53:38.143Z,34.85
2019-02-24T13:56:07.604Z,34.85
2019-02-24T13:58:39.589Z,35.79
2019-02-24T14:01:09.462Z,35.81
2019-02-24T14:03:50.419Z,35.81
2019-02-24T14:06:17.084Z,36.05
2019-02-24T14:08:46.803Z,35.93
2019-02-24T14:11:16.469Z,35.60
2019-02-24T14:13:48.260Z,35.35
2019-02-24T14:16:18.087Z,36.00
2019-02-24T14:18:50.138Z,37.90
2019-02-24T14:21:21.777Z,37.90
2019-02-24T14:23:55.929Z,37.16
2019-02-24T14:26:25.803Z,37.16
2019-02-24T14:28:55.390Z,36.60
2019-02-24T14:31:25.110Z,36.60
2019-02-24T14:33:54.750Z,36.59
2019-02-24T14:36:24.500Z,37.50
2019-02-24T14:38:57.100Z,37.50
2019-02-24T14:41:26.789Z,38.36
2019-02-24T14:43:57.683Z,38.36
2019-02-24T14:46:29.757Z,37.12
2019-02-24T14:49:01.093Z,36.57
2019-02-24T14:51:32.573Z,37.88
2019-02-24T14:54:02.177Z,37.88
2019-02-24T14:56:36.241Z,37.80
2019-02-24T14:59:07.138Z,38.21
2019-02-24T15:01:36.795Z,37.75
2019-02-24T15:04:06.385Z,37.11
2019-02-24T15:06:36.066Z,37.11
2019-02-24T15:09:06.695Z,37.68
2019-02-24T15:11:38.362Z,38.25
2019-02-24T15:14:07.608Z,39.61
2019-02-24T15:16:37.249Z,38.68
2019-02-24T15:19:06.829Z,38.44
2019-02-24T15:21:37.810Z,39.52
2019-02-24T15:24:07.605Z,38.61
2019-02-24T15:26:37.270Z,39.58
2019-02-24T15:29:06.850Z,37.85
2019-02-24T15:31:36.504Z,39.04
2019-02-24T15:34:06.203Z,39.04
2019-02-24T15:36:35.830Z,38.72
2019-02-24T15:39:07.444Z,39.04
2019-02-24T15:41:39.060Z,41.17
2019-02-24T15:44:10.219Z,40.02
2019-02-24T15:46:39.845Z,40.02
2019-02-24T15:49:09.511Z,39.86
2019-02-24T15:51:39.155Z,39.46
2019-02-24T15:54:10.197Z,39.85
2019-02-24T15:56:39.894Z,39.84
2019-02-24T15:59:09.527Z,39.84
2019-02-24T16:01:40.823Z,40.25
2019-02-24T16:04:12.548Z,40.77
2019-02-24T16:06:41.950Z,42.07
2019-02-24T16:09:11.781Z,42.85
2019-02-24T16:11:44.743Z,41.28
2019-02-24T16:14:15.814Z,41.28
2019-02-24T16:16:47.517Z,41.91
2019-02-24T16:19:18.236Z,41.66
2019-02-24T16:21:49.599Z,43.13
2019-02-24T16:24:19.417Z,41.88
2019-02-24T16:26:49.071Z,43.00
2019-02-24T16:29:18.762Z,44.21
2019-02-24T16:31:48.454Z,42.77
2019-02-24T16:34:18.201Z,42.77
2019-02-24T16:36:47.944Z,42.80
2019-02-24T16:39:17.586Z,43.40
2019-02-24T16:41:49.597Z,44.74
2019-02-24T16:44:19.371Z,44.61
2019-02-24T16:46:51.051Z,45.36
2019-02-24T16:49:23.945Z,45.41
2019-02-24T16:51:53.579Z,44.60
2019-02-24T16:54:23.156Z,44.73
2019-02-24T16:56:52.797Z,44.25
2019-02-24T16:59:22.543Z,45.66
2019-02-24T17:01:54.713Z,46.62
2019-02-24T17:04:24.386Z,45.92
2019-02-24T17:06:54.324Z,45.05
2019-02-24T17:09:23.943Z,45.25
2019-02-24T17:11:53.672Z,44.67
2019-02-24T17:14:24.882Z,45.02
2019-02-24T17:17:01.361Z,46.23
2019-02-24T17:19:26.103Z,45.45
2019-02-24T17:21:56.994Z,45.45
2019-02-24T17:24:27.991Z,45.13
2019-02-24T17:26:57.773Z,45.74
2019-02-24T17:29:27.557Z,44.79
2019-02-24T17:32:00.155Z,45.49
2019-02-24T17:34:31.120Z,45.44
2019-02-24T17:37:01.960Z,45.96
2019-02-24T17:39:32.976Z,44.90
2019-02-24T17:42:09.695Z,45.56
2019-02-24T17:44:41.039Z,47.33
2019-02-24T17:47:10.794Z,47.27
2019-02-24T17:49:40.321Z,46.96
2019-02-24T17:52:10.017Z,47.44
2019-02-24T17:54:39.882Z,47.13
2019-02-24T17:57:11.658Z,46.75
2019-02-24T17:59:42.994Z,47.37
2019-02-24T18:02:12.891Z,46.38
2019-02-24T18:04:45.494Z,45.71
2019-02-24T18:07:16.293Z,45.75
2019-02-24T18:09:46.015Z,47.12
2019-02-24T18:12:15.705Z,46.42
2019-02-24T18:14:45.385Z,45.84
2019-02-24T18:17:14.901Z,46.70
2019-02-24T18:19:44.578Z,46.41
2019-02-24T18:22:14.309Z,46.55
2019-02-24T18:24:45.881Z,47.58
2019-02-24T18:27:15.640Z,47.58
2019-02-24T18:29:45.369Z,47.92
2019-02-24T18:32:14.910Z,48.36
2019-02-24T18:34:44.667Z,47.97
2019-02-24T18:37:15.807Z,48.19
2019-02-24T18:39:46.589Z,47.99
2019-02-24T18:42:16.206Z,48.71
2019-02-24T18:44:45.840Z,47.35
2019-02-24T18:47:15.619Z,48.17
2019-02-24T18:49:49.775Z,48.60
2019-02-24T18:52:23.742Z,49.35
2019-02-24T18:54:53.495Z,47.74
2019-02-24T18:57:23.188Z,48.02
2019-02-24T18:59:52.950Z,47.42
2019-02-24T19:02:22.681Z,47.03
2019-02-24T19:04:52.462Z,48.11
2019-02-24T19:07:22.036Z,47.57
2019-02-24T19:09:52.114Z,47.65
2019-02-24T19:12:22.069Z,47.71
2019-02-24T19:14:51.671Z,47.60
2019-02-24T19:17:24.298Z,48.06
2019-02-24T19:19:53.913Z,49.23
2019-02-24T19:22:23.620Z,49.28
2019-02-24T19:24:53.403Z,48.85
2019-02-24T19:27:22.854Z,48.31
2019-02-24T19:29:54.980Z,49.02
2019-02-24T19:32:24.578Z,47.45
2019-02-24T19:34:54.305Z,48.72
2019-02-24T19:37:26.259Z,48.62
2019-02-24T19:39:56.833Z,47.55
2019-02-24T19:42:26.643Z,49.75
2019-02-24T19:44:56.416Z,50.80
2019-02-24T19:47:27.664Z,49.96
2019-02-24T19:49:57.330Z,50.06
2019-02-24T19:52:28.462Z,49.76
2019-02-24T19:54:58.145Z,50.45
2019-02-24T19:57:29.063Z,50.98
2019-02-24T19:59:58.744Z,49.08
2019-02-24T20:02:28.423Z,50.14
2019-02-24T20:04:58.023Z,50.54
2019-02-24T20:07:29.083Z,49.96
2019-02-24T20:09:58.758Z,48.90
2019-02-24T20:12:28.332Z,49.07
2019-02-24T20:14:57.826Z,48.85
2019-02-24T20:17:27.476Z,47.77
2019-02-24T20:19:57.004Z,48.14
2019-02-24T20:22:26.685Z,47.52
2019-02-24T20:24:56.456Z,47.39
2019-02-24T20:27:25.982Z,47.73
2019-02-24T20:29:55.675Z,48.84
2019-02-24T20:32:26.313Z,49.55
2019-02-24T20:34:55.955Z,48.80
2019-02-24T20:37:31.144Z,49.62
2019-02-24T20:40:00.760Z,51.13
2019-02-24T20:42:30.443Z,50.61
2019-02-24T20:45:00.156Z,49.90
2019-02-24T20:47:30.041Z,50.13
2019-02-24T20:49:59.863Z,50.31
2019-02-24T20:52:31.637Z,51.97
2019-02-24T20:55:03.335Z,50.86
2019-02-24T20:57:33.907Z,51.06
2019-02-24T21:00:03.567Z,51.79
2019-02-24T21:02:33.355Z,51.42
2019-02-24T21:05:03.085Z,51.02
2019-02-24T21:07:32.824Z,50.90
2019-02-24T21:10:03.947Z,51.53
2019-02-24T21:12:33.618Z,52.07
2019-02-24T21:15:04.886Z,53.54
2019-02-24T21:17:34.335Z,52.94
2019-02-24T21:20:04.243Z,52.73
2019-02-24T21:22:37.129Z,52.81
2019-02-24T21:25:06.868Z,52.14
2019-02-24T21:27:39.521Z,52.33
2019-02-24T21:30:17.395Z,51.80
2019-02-24T21:32:48.115Z,52.54
2019-02-24T21:35:17.947Z,52.97
2019-02-24T21:37:49.813Z,53.64
2019-02-24T21:40:23.672Z,53.52
2019-02-24T21:42:52.179Z,53.44
2019-02-24T21:45:26.096Z,53.05
2019-02-24T21:47:55.883Z,53.60
2019-02-24T21:50:25.814Z,52.66
2019-02-24T21:53:02.008Z,52.47
2019-02-24T21:55:32.695Z,52.19
2019-02-24T21:58:04.322Z,52.84
2019-02-24T22:00:47.374Z,53.31
2019-02-24T22:03:18.444Z,53.48
2019-02-24T22:05:48.059Z,53.76
2019-02-24T22:08:17.796Z,54.36
2019-02-24T22:10:47.266Z,54.60
2019-02-24T22:13:16.905Z,54.46
2019-02-24T22:15:46.659Z,54.62
2019-02-24T22:18:16.370Z,55.71
2019-02-24T22:20:48.474Z,55.95
2019-02-24T22:23:18.120Z,56.04
2019-02-24T22:25:47.657Z,56.34
2019-02-24T22:28:19.622Z,56.85
2019-02-24T22:30:49.192Z,57.21
2019-02-24T22:33:21.043Z,57.50
2019-02-24T22:35:52.293Z,57.93
2019-02-24T22:38:25.038Z,58.21
2019-02-24T22:40:54.779Z,58.19
2019-02-24T22:43:24.510Z,58.88
2019-02-24T22:45:55.669Z,58.27
2019-02-24T22:48:25.331Z,57.07
2019-02-24T22:50:57.324Z,56.40
2019-02-24T22:53:32.169Z,56.27
2019-02-24T22:56:04.843Z,56.57
2019-02-24T22:58:34.544Z,56.42
2019-02-24T23:01:19.742Z,56.97
2019-02-24T23:03:49.800Z,57.24
2019-02-24T23:06:26.550Z,56.71
2019-02-24T23:08:56.168Z,57.10
2019-02-24T23:11:25.853Z,56.48
2019-02-24T23:13:55.896Z,57.07
2019-02-24T23:16:27.985Z,57.05
2019-02-24T23:18:57.738Z,57.20
2019-02-24T23:21:29.402Z,57.07
2019-02-24T23:24:03.504Z,56.88
2019-02-24T23:26:35.120Z,56.94
2019-02-24T23:29:06.535Z,57.33
2019-02-24T23:31:37.023Z,57.46
2019-02-24T23:34:06.963Z,57.85
2019-02-24T23:36:36.731Z,57.67
2019-02-24T23:39:09.841Z,58.36
2019-02-24T23:41:40.735Z,58.07
2019-02-24T23:44:10.426Z,57.87
2019-02-24T23:46:40.103Z,58.12
2019-02-24T23:49:12.182Z,57.62
2019-02-24T23:51:41.851Z,58.22
2019-02-24T23:54:14.085Z,57.51
2019-02-24T23:56:43.613Z,57.73
2019-02-24T23:59:14.392Z,57.24
